Station History

Weather Underground - logo

Station Historical Data
Daily Summary for July 30, 2017 Units:  English    Metric   Both
« Previous Day
Next Day »
Daily Weekly Monthly Yearly Custom
  High: Low: Average:
Temperature: 101.8 °F 66.6 °F 84.2 °F
Dew Point: 67.6 °F 58.3 °F 62.6 °F
Humidity: 82 % 25 % 52 %
Wind Speed: 4.6 mph 0.0 mph 1.4 mph
Wind Gust: 4.6 mph - -
Wind:- - SSW
Pressure: 29.96 in 29.84 in -
Precipitation: 0.00 in    
Historical Graphs
 
 
Tabular Data for July 30, 2017
Time Temperature Dew Point Pressure Wind Wind Speed Wind Gust Humidity Rainfall Rate (Hourly)
00:03 79.7 °F 62.1 °F 29.87 in Calm     55 % 0.00 in
00:08 79.3 °F 61.2 °F 29.87 in Calm     54 % 0.00 in
00:13 78.8 °F 61.8 °F 29.87 in Calm     56 % 0.00 in
00:18 78.3 °F 62.8 °F 29.87 in Calm     59 % 0.00 in
00:23 77.8 °F 62.3 °F 29.87 in Calm     59 % 0.00 in
00:28 76.8 °F 61.9 °F 29.87 in Calm     60 % 0.00 in
00:33 76.0 °F 61.6 °F 29.87 in Calm     61 % 0.00 in
00:38 75.7 °F 62.7 °F 29.87 in Calm     64 % 0.00 in
00:43 75.4 °F 62.4 °F 29.87 in Calm     64 % 0.00 in
00:48 75.1 °F 61.6 °F 29.87 in Calm     63 % 0.00 in
00:53 75.1 °F 62.5 °F 29.87 in Calm     65 % 0.00 in
01:04 74.2 °F 61.7 °F 29.87 in Calm     65 % 0.00 in
01:09 74.0 °F 61.5 °F 29.88 in Calm     65 % 0.00 in
01:14 74.0 °F 61.9 °F 29.88 in Calm     66 % 0.00 in
01:19 73.7 °F 62.1 °F 29.88 in Calm     67 % 0.00 in
01:24 73.2 °F 62.0 °F 29.88 in Calm     68 % 0.00 in
01:29 72.9 °F 61.7 °F 29.88 in Calm     68 % 0.00 in
01:34 72.8 °F 61.6 °F 29.88 in Calm     68 % 0.00 in
01:39 72.8 °F 61.6 °F 29.88 in Calm     68 % 0.00 in
01:44 72.8 °F 62.0 °F 29.88 in Calm     69 % 0.00 in
01:49 72.6 °F 61.8 °F 29.88 in Calm     69 % 0.00 in
01:54 72.5 °F 62.2 °F 29.88 in Calm     70 % 0.00 in
01:59 72.4 °F 62.5 °F 29.88 in Calm     71 % 0.00 in
02:04 72.1 °F 62.6 °F 29.88 in Calm     72 % 0.00 in
02:09 71.7 °F 62.6 °F 29.88 in Calm     73 % 0.00 in
02:14 71.4 °F 62.7 °F 29.88 in Calm     74 % 0.00 in
02:19 71.1 °F 62.8 °F 29.88 in Calm     75 % 0.00 in
02:24 70.7 °F 62.4 °F 29.88 in ESE 1.0 mph 1.0 mph 75 % 0.00 in
02:29 70.2 °F 62.3 °F 29.88 in ESE 1.2 mph   76 % 0.00 in
02:34 69.8 °F 62.3 °F 29.88 in ESE 1.2 mph 1.2 mph 77 % 0.00 in
02:39 69.5 °F 62.0 °F 29.88 in Calm     77 % 0.00 in
02:44 69.5 °F 61.6 °F 29.88 in ESE 1.2 mph 1.2 mph 76 % 0.00 in
02:49 69.6 °F 61.3 °F 29.89 in ESE 1.2 mph   75 % 0.00 in
02:54 69.7 °F 61.4 °F 29.89 in Calm     75 % 0.00 in
02:59 69.7 °F 61.4 °F 29.89 in Calm     75 % 0.00 in
03:04 69.6 °F 61.3 °F 29.89 in Calm     75 % 0.00 in
03:09 69.4 °F 61.5 °F 29.89 in ESE 1.2 mph   76 % 0.00 in
03:14 69.3 °F 61.8 °F 29.89 in ESE 1.2 mph 1.2 mph 77 % 0.00 in
03:19 69.2 °F 61.7 °F 29.89 in ESE 1.2 mph 1.2 mph 77 % 0.00 in
03:24 69.1 °F 61.6 °F 29.89 in ESE 1.0 mph   77 % 0.00 in
03:29 69.0 °F 61.9 °F 29.89 in ESE 1.2 mph   78 % 0.00 in
03:34 69.1 °F 61.6 °F 29.89 in ESE 1.2 mph 1.2 mph 77 % 0.00 in
03:39 69.1 °F 61.6 °F 29.89 in ESE 1.2 mph   77 % 0.00 in
03:45 69.0 °F 61.5 °F 29.89 in Calm     77 % 0.00 in
03:50 68.9 °F 61.4 °F 29.89 in Calm     77 % 0.00 in
03:55 68.7 °F 61.2 °F 29.89 in Calm     77 % 0.00 in
04:00 68.6 °F 60.7 °F 29.89 in Calm     76 % 0.00 in
04:05 68.7 °F 60.8 °F 29.89 in ESE 1.2 mph 1.2 mph 76 % 0.00 in
04:10 68.6 °F 60.7 °F 29.89 in Calm     76 % 0.00 in
04:15 68.5 °F 60.6 °F 29.89 in Calm     76 % 0.00 in
04:20 68.4 °F 60.5 °F 29.89 in Calm     76 % 0.00 in
04:25 68.3 °F 60.4 °F 29.89 in Calm     76 % 0.00 in
04:30 68.2 °F 60.3 °F 29.89 in Calm     76 % 0.00 in
04:35 68.1 °F 60.6 °F 29.89 in Calm     77 % 0.00 in
04:40 67.9 °F 60.4 °F 29.90 in Calm     77 % 0.00 in
04:45 67.8 °F 60.0 °F 29.90 in Calm     76 % 0.00 in
04:50 67.8 °F 60.0 °F 29.90 in Calm     76 % 0.00 in
04:55 67.8 °F 60.3 °F 29.90 in Calm     77 % 0.00 in
05:00 67.7 °F 59.9 °F 29.90 in Calm     76 % 0.00 in
05:05 67.6 °F 59.8 °F 29.90 in Calm     76 % 0.00 in
05:10 67.5 °F 60.0 °F 29.90 in Calm     77 % 0.00 in
05:15 67.4 °F 60.3 °F 29.90 in Calm     78 % 0.00 in
05:20 67.3 °F 60.2 °F 29.91 in Calm     78 % 0.00 in
05:25 67.2 °F 60.8 °F 29.91 in Calm     80 % 0.00 in
05:30 67.0 °F 60.3 °F 29.91 in Calm     79 % 0.00 in
05:35 66.9 °F 60.5 °F 29.91 in Calm     80 % 0.00 in
05:40 67.1 °F 61.4 °F 29.91 in Calm     82 % 0.00 in
05:45 67.1 °F 60.7 °F 29.92 in Calm     80 % 0.00 in
05:50 67.1 °F 60.7 °F 29.92 in Calm     80 % 0.00 in
05:55 67.1 °F 60.4 °F 29.92 in Calm     79 % 0.00 in
06:00 67.1 °F 60.0 °F 29.92 in Calm     78 % 0.00 in
06:05 67.0 °F 59.9 °F 29.92 in Calm     78 % 0.00 in
06:10 66.9 °F 59.8 °F 29.92 in Calm     78 % 0.00 in
06:15 66.7 °F 60.0 °F 29.92 in Calm     79 % 0.00 in
06:20 66.6 °F 59.5 °F 29.93 in Calm     78 % 0.00 in
06:25 66.8 °F 60.1 °F 29.93 in Calm     79 % 0.00 in
06:30 66.8 °F 60.4 °F 29.93 in Calm     80 % 0.00 in
06:35 66.9 °F 60.5 °F 29.93 in Calm     80 % 0.00 in
06:40 67.3 °F 60.9 °F 29.93 in Calm     80 % 0.00 in
06:45 67.7 °F 61.0 °F 29.93 in Calm     79 % 0.00 in
06:50 68.0 °F 60.5 °F 29.93 in Calm     77 % 0.00 in
06:55 68.4 °F 60.5 °F 29.94 in Calm     76 % 0.00 in
07:00 68.9 °F 60.3 °F 29.94 in Calm     74 % 0.00 in
07:05 69.4 °F 61.1 °F 29.94 in ESE 1.0 mph   75 % 0.00 in
07:10 70.2 °F 61.1 °F 29.94 in Calm     73 % 0.00 in
07:16 71.6 °F 61.7 °F 29.94 in Calm     71 % 0.00 in
07:21 73.0 °F 61.4 °F 29.94 in Calm   0.1 mph 67 % 0.00 in
07:26 73.9 °F 60.5 °F 29.95 in East 2.0 mph 2.0 mph 63 % 0.00 in
07:31 74.4 °F 60.5 °F 29.95 in ESE 2.3 mph 2.3 mph 62 % 0.00 in
07:36 74.9 °F 60.5 °F 29.95 in SSE 3.5 mph 3.5 mph 61 % 0.00 in
07:41 75.3 °F 60.0 °F 29.95 in SE 1.2 mph 1.2 mph 59 % 0.00 in
07:46 75.9 °F 60.5 °F 29.95 in ESE 2.3 mph 2.3 mph 59 % 0.00 in
07:51 76.4 °F 60.5 °F 29.95 in SE 2.0 mph 2.0 mph 58 % 0.00 in
07:56 76.6 °F 60.7 °F 29.95 in Calm   1.0 mph 58 % 0.00 in
08:01 77.3 °F 61.4 °F 29.95 in ESE 1.2 mph 1.2 mph 58 % 0.00 in
08:06 77.5 °F 60.6 °F 29.95 in SSW 2.3 mph 2.3 mph 56 % 0.00 in
08:11 77.9 °F 60.4 °F 29.95 in South 3.5 mph 3.5 mph 55 % 0.00 in
08:16 78.3 °F 61.3 °F 29.95 in SE 1.0 mph 1.0 mph 56 % 0.00 in
08:21 78.9 °F 60.3 °F 29.95 in SSE 4.6 mph 4.6 mph 53 % 0.00 in
08:26 79.4 °F 60.8 °F 29.95 in SE 2.3 mph 2.3 mph 53 % 0.00 in
08:31 79.8 °F 60.6 °F 29.96 in East 3.5 mph 3.5 mph 52 % 0.00 in
08:36 80.3 °F 60.5 °F 29.96 in ESE 1.2 mph 1.2 mph 51 % 0.00 in
08:40 80.4 °F 61.2 °F 29.96 in SSE 2.3 mph 2.3 mph 52 % 0.00 in
08:45 81.1 °F 60.7 °F 29.96 in SE 3.5 mph 3.5 mph 50 % 0.00 in
08:50 81.4 °F 61.0 °F 29.96 in South 3.5 mph 3.5 mph 50 % 0.00 in
08:53 81.6 °F 61.7 °F 29.96 in ESE 3.0 mph 3.0 mph 51 % 0.00 in
08:55 81.8 °F 61.3 °F 29.96 in South 3.0 mph 3.0 mph 50 % 0.00 in
09:00 82.1 °F 61.0 °F 29.96 in ENE 3.5 mph 3.5 mph 49 % 0.00 in
09:05 82.5 °F 60.8 °F 29.96 in South 3.5 mph 3.5 mph 48 % 0.00 in
09:10 83.2 °F 62.1 °F 29.95 in East 3.0 mph 3.0 mph 49 % 0.00 in
09:15 83.8 °F 61.4 °F 29.95 in South 3.5 mph 3.5 mph 47 % 0.00 in
09:20 84.1 °F 61.1 °F 29.95 in SW 3.5 mph 3.5 mph 46 % 0.00 in
09:25 84.6 °F 60.9 °F 29.95 in SE 3.5 mph 3.5 mph 45 % 0.00 in
09:30 84.7 °F 61.6 °F 29.95 in East 2.3 mph 2.3 mph 46 % 0.00 in
09:35 85.0 °F 61.3 °F 29.96 in SE 3.5 mph 3.5 mph 45 % 0.00 in
09:41 85.2 °F 60.8 °F 29.96 in SSE 3.5 mph 3.5 mph 44 % 0.00 in
09:46 85.3 °F 60.9 °F 29.95 in SE 1.2 mph 1.2 mph 44 % 0.00 in
09:51 86.1 °F 61.6 °F 29.95 in SE 1.2 mph 1.2 mph 44 % 0.00 in
09:56 86.7 °F 61.5 °F 29.96 in SSE 3.5 mph 3.5 mph 43 % 0.00 in
10:01 86.8 °F 62.3 °F 29.96 in SSE 1.2 mph 1.2 mph 44 % 0.00 in
10:06 86.6 °F 61.4 °F 29.96 in NW 2.3 mph 2.3 mph 43 % 0.00 in
10:11 86.7 °F 61.5 °F 29.96 in WNW 1.2 mph 1.2 mph 43 % 0.00 in
10:16 86.5 °F 62.0 °F 29.96 in ESE 2.3 mph 2.3 mph 44 % 0.00 in
10:21 86.6 °F 61.4 °F 29.96 in SSE 2.3 mph 2.3 mph 43 % 0.00 in
10:26 86.6 °F 61.4 °F 29.95 in SE 3.5 mph 3.5 mph 43 % 0.00 in
10:31 86.7 °F 61.5 °F 29.96 in NW 2.3 mph 2.3 mph 43 % 0.00 in
10:36 87.1 °F 62.5 °F 29.95 in NNW 3.0 mph 3.0 mph 44 % 0.00 in
10:41 87.4 °F 62.8 °F 29.95 in SSE 2.3 mph 2.3 mph 44 % 0.00 in
10:46 88.0 °F 63.4 °F 29.95 in SE 1.2 mph 1.2 mph 44 % 0.00 in
10:51 88.6 °F 63.2 °F 29.95 in SSE 4.6 mph 4.6 mph 43 % 0.00 in
10:56 88.9 °F 62.8 °F 29.95 in SSE 3.5 mph 3.5 mph 42 % 0.00 in
11:01 89.3 °F 62.5 °F 29.95 in SSW 2.3 mph 2.3 mph 41 % 0.00 in
11:06 89.4 °F 61.9 °F 29.94 in NE 3.5 mph 3.5 mph 40 % 0.00 in
11:11 89.6 °F 62.1 °F 29.94 in North 3.5 mph 3.5 mph 40 % 0.00 in
11:16 90.0 °F 63.1 °F 29.94 in SSE 2.3 mph 2.3 mph 41 % 0.00 in
11:21 90.5 °F 63.6 °F 29.94 in NE 2.3 mph 2.3 mph 41 % 0.00 in
11:26 90.7 °F 63.1 °F 29.94 in NE 3.5 mph 3.5 mph 40 % 0.00 in
11:31 91.0 °F 63.3 °F 29.94 in South 3.5 mph 3.5 mph 40 % 0.00 in
11:36 90.9 °F 63.2 °F 29.94 in NW 3.5 mph 3.5 mph 40 % 0.00 in
11:41 91.0 °F 63.3 °F 29.94 in SE 3.5 mph 3.5 mph 40 % 0.00 in
11:46 91.1 °F 65.5 °F 29.94 in NNW 2.3 mph 2.3 mph 43 % 0.00 in
11:51 91.1 °F 64.1 °F 29.94 in NW 2.3 mph 2.3 mph 41 % 0.00 in
11:56 91.1 °F 64.1 °F 29.94 in NW 3.5 mph 3.5 mph 41 % 0.00 in
12:01 91.2 °F 64.2 °F 29.94 in West 1.2 mph 1.2 mph 41 % 0.00 in
12:06 91.7 °F 64.7 °F 29.94 in SW 3.5 mph 3.5 mph 41 % 0.00 in
12:11 91.8 °F 64.0 °F 29.94 in North 2.3 mph 2.3 mph 40 % 0.00 in
12:16 92.3 °F 63.8 °F 29.93 in SSE 4.0 mph 4.0 mph 39 % 0.00 in
12:21 92.6 °F 63.3 °F 29.93 in NW 3.5 mph 3.5 mph 38 % 0.00 in
12:26 93.1 °F 65.9 °F 29.93 in East 3.5 mph 3.5 mph 41 % 0.00 in
12:36 93.5 °F 65.6 °F 29.93 in SSE 4.6 mph 4.6 mph 40 % 0.00 in
12:41 94.0 °F 65.3 °F 29.93 in WNW 1.2 mph 1.2 mph 39 % 0.00 in
12:46 94.4 °F 64.1 °F 29.93 in ESE 2.3 mph 2.3 mph 37 % 0.00 in
12:51 94.5 °F 64.2 °F 29.93 in Calm   0.2 mph 37 % 0.00 in
12:56 94.7 °F 64.4 °F 29.93 in NNW 3.0 mph 3.0 mph 37 % 0.00 in
13:01 94.7 °F 63.6 °F 29.93 in NW 2.3 mph 2.3 mph 36 % 0.00 in
13:06 94.8 °F 64.5 °F 29.93 in WSW 2.3 mph 2.3 mph 37 % 0.00 in
13:11 95.0 °F 63.9 °F 29.93 in South 3.5 mph 3.5 mph 36 % 0.00 in
13:16 95.1 °F 62.3 °F 29.92 in NNW 2.3 mph 2.3 mph 34 % 0.00 in
13:21 95.6 °F 61.9 °F 29.92 in NW 2.3 mph 2.3 mph 33 % 0.00 in
13:26 96.2 °F 64.9 °F 29.92 in ESE 2.3 mph 2.3 mph 36 % 0.00 in
13:32 96.7 °F 64.5 °F 29.92 in SSE 2.3 mph 2.3 mph 35 % 0.00 in
13:37 96.8 °F 65.4 °F 29.92 in North 1.2 mph 1.2 mph 36 % 0.00 in
13:42 96.4 °F 64.3 °F 29.92 in NW 2.3 mph 2.3 mph 35 % 0.00 in
13:47 96.4 °F 65.1 °F 29.92 in SSW 1.2 mph 1.2 mph 36 % 0.00 in
13:52 96.9 °F 64.7 °F 29.92 in WSW 2.0 mph 2.0 mph 35 % 0.00 in
13:57 97.0 °F 65.6 °F 29.91 in ENE 1.2 mph 1.2 mph 36 % 0.00 in
14:02 97.5 °F 61.8 °F 29.91 in NW 1.2 mph 1.2 mph 31 % 0.00 in
14:07 97.0 °F 62.3 °F 29.91 in NW 2.3 mph 2.3 mph 32 % 0.00 in
14:12 97.3 °F 62.5 °F 29.91 in South 1.2 mph 1.2 mph 32 % 0.00 in
14:17 98.2 °F 62.4 °F 29.91 in NNW 2.3 mph 2.3 mph 31 % 0.00 in
14:22 98.3 °F 62.5 °F 29.91 in WNW 2.3 mph 2.3 mph 31 % 0.00 in
14:27 98.3 °F 64.3 °F 29.90 in SW 3.5 mph 3.5 mph 33 % 0.00 in
14:32 98.4 °F 63.5 °F 29.90 in NE 1.2 mph 1.2 mph 32 % 0.00 in
14:37 98.7 °F 62.8 °F 29.90 in WNW 3.5 mph 3.5 mph 31 % 0.00 in
14:42 98.5 °F 62.6 °F 29.90 in WSW 2.3 mph 2.3 mph 31 % 0.00 in
14:47 99.1 °F 63.2 °F 29.90 in NNE 2.3 mph 2.3 mph 31 % 0.00 in
14:52 99.4 °F 64.3 °F 29.89 in ENE 2.3 mph 2.3 mph 32 % 0.00 in
14:57 99.7 °F 61.8 °F 29.89 in NW 3.5 mph 3.5 mph 29 % 0.00 in
15:02 99.2 °F 62.3 °F 29.89 in NW 2.3 mph 2.3 mph 30 % 0.00 in
15:07 99.9 °F 62.9 °F 29.89 in NNW 2.3 mph 2.3 mph 30 % 0.00 in
15:12 100.6 °F 63.5 °F 29.89 in East 2.3 mph 2.3 mph 30 % 0.00 in
15:17 100.8 °F 63.7 °F 29.88 in NW 3.5 mph 3.5 mph 30 % 0.00 in
15:22 101.1 °F 63.9 °F 29.88 in WNW 1.2 mph 1.2 mph 30 % 0.00 in
15:27 101.2 °F 63.1 °F 29.88 in NW 2.3 mph 2.3 mph 29 % 0.00 in
15:32 101.0 °F 64.8 °F 29.87 in SE 1.2 mph 1.2 mph 31 % 0.00 in
15:37 101.5 °F 65.2 °F 29.87 in East 2.3 mph 2.3 mph 31 % 0.00 in
15:42 101.8 °F 64.6 °F 29.87 in NNE 2.3 mph 2.3 mph 30 % 0.00 in
15:47 101.0 °F 64.8 °F 29.87 in NW 1.2 mph 1.2 mph 31 % 0.00 in
15:52 101.3 °F 64.1 °F 29.87 in SW 2.3 mph 2.3 mph 30 % 0.00 in
15:58 101.2 °F 64.0 °F 29.86 in Calm   0.7 mph 30 % 0.00 in
16:03 101.0 °F 64.8 °F 29.86 in WNW 2.3 mph   31 % 0.00 in
16:08 101.0 °F 64.8 °F 29.86 in NW 2.3 mph 2.3 mph 31 % 0.00 in
16:13 101.0 °F 62.9 °F 29.86 in WNW 3.5 mph 3.5 mph 29 % 0.00 in
16:18 100.5 °F 62.5 °F 29.86 in NNW 2.3 mph 2.3 mph 29 % 0.00 in
16:23 100.5 °F 62.5 °F 29.86 in WNW 4.6 mph 4.6 mph 29 % 0.00 in
16:28 100.3 °F 62.3 °F 29.86 in WNW 3.5 mph 3.5 mph 29 % 0.00 in
16:33 100.2 °F 63.2 °F 29.86 in NW 3.5 mph 3.5 mph 30 % 0.00 in
16:38 100.0 °F 61.0 °F 29.85 in WNW 3.5 mph 3.5 mph 28 % 0.00 in
16:43 99.8 °F 59.9 °F 29.85 in NW 2.3 mph 2.3 mph 27 % 0.00 in
16:48 99.8 °F 58.8 °F 29.85 in NW 4.6 mph 4.6 mph 26 % 0.00 in
16:53 99.8 °F 58.8 °F 29.85 in NW 3.5 mph 3.5 mph 26 % 0.00 in
16:58 100.1 °F 60.1 °F 29.85 in NW 2.3 mph 2.3 mph 27 % 0.00 in
17:03 100.3 °F 61.3 °F 29.85 in NW 2.3 mph 2.3 mph 28 % 0.00 in
17:08 100.6 °F 59.5 °F 29.85 in WNW 4.0 mph 4.0 mph 26 % 0.00 in
17:13 100.5 °F 58.3 °F 29.85 in NNW 3.5 mph 3.5 mph 25 % 0.00 in
17:18 100.4 °F 59.3 °F 29.85 in NW 4.6 mph 4.6 mph 26 % 0.00 in
17:23 100.3 °F 59.2 °F 29.85 in West 2.3 mph 2.3 mph 26 % 0.00 in
17:28 100.1 °F 61.1 °F 29.85 in NW 4.6 mph 4.6 mph 28 % 0.00 in
17:33 99.8 °F 60.9 °F 29.85 in NNW 3.5 mph 3.5 mph 28 % 0.00 in
17:38 99.8 °F 60.9 °F 29.85 in NW 2.3 mph 2.3 mph 28 % 0.00 in
17:43 99.7 °F 60.8 °F 29.85 in WNW 3.5 mph 3.5 mph 28 % 0.00 in
17:48 99.9 °F 62.0 °F 29.85 in WNW 2.3 mph 2.3 mph 29 % 0.00 in
17:53 99.6 °F 61.7 °F 29.85 in NW 3.5 mph 3.5 mph 29 % 0.00 in
17:58 99.5 °F 61.6 °F 29.85 in WNW 3.5 mph 3.5 mph 29 % 0.00 in
18:03 99.5 °F 62.6 °F 29.85 in NW 3.5 mph 3.5 mph 30 % 0.00 in
18:08 99.3 °F 61.4 °F 29.85 in NW 3.5 mph 3.5 mph 29 % 0.00 in
18:13 99.2 °F 61.4 °F 29.85 in WNW 2.3 mph 2.3 mph 29 % 0.00 in
18:18 99.1 °F 64.1 °F 29.85 in WNW 4.0 mph 4.0 mph 32 % 0.00 in
18:23 98.8 °F 61.0 °F 29.85 in NW 3.5 mph 3.5 mph 29 % 0.00 in
18:28 98.8 °F 62.0 °F 29.85 in NW 3.5 mph 3.5 mph 30 % 0.00 in
18:33 98.9 °F 61.1 °F 29.85 in NW 3.5 mph 3.5 mph 29 % 0.00 in
18:38 98.8 °F 62.9 °F 29.85 in NNW 3.5 mph 3.5 mph 31 % 0.00 in
18:43 98.6 °F 62.7 °F 29.85 in NW 2.3 mph 2.3 mph 31 % 0.00 in
18:48 98.5 °F 63.6 °F 29.85 in NW 4.0 mph 4.0 mph 32 % 0.00 in
18:53 98.0 °F 63.1 °F 29.85 in WNW 2.3 mph 2.3 mph 32 % 0.00 in
18:58 97.3 °F 62.5 °F 29.85 in WNW 2.3 mph 2.3 mph 32 % 0.00 in
19:03 96.6 °F 62.8 °F 29.85 in NW 2.3 mph 2.3 mph 33 % 0.00 in
19:08 96.1 °F 62.3 °F 29.85 in NW 1.2 mph 1.2 mph 33 % 0.00 in
19:13 95.7 °F 62.8 °F 29.85 in NW 2.3 mph 2.3 mph 34 % 0.00 in
19:18 95.4 °F 63.4 °F 29.85 in NW 1.2 mph 1.2 mph 35 % 0.00 in
19:24 94.9 °F 63.0 °F 29.85 in NW 1.2 mph 1.2 mph 35 % 0.00 in
19:29 94.3 °F 64.0 °F 29.85 in Calm     37 % 0.00 in
19:33 93.8 °F 63.6 °F 29.84 in NW 1.2 mph   37 % 0.00 in
19:34 93.7 °F 63.5 °F 29.84 in Calm     37 % 0.00 in
19:39 93.3 °F 62.4 °F 29.84 in Calm     36 % 0.00 in
19:49 92.2 °F 63.7 °F 29.84 in Calm     39 % 0.00 in
19:54 91.4 °F 63.7 °F 29.84 in Calm     40 % 0.00 in
19:59 90.6 °F 64.4 °F 29.84 in Calm     42 % 0.00 in
20:04 90.0 °F 64.5 °F 29.84 in Calm     43 % 0.00 in
20:09 89.2 °F 65.7 °F 29.84 in Calm     46 % 0.00 in
20:14 88.3 °F 65.5 °F 29.84 in Calm     47 % 0.00 in
20:19 87.6 °F 64.9 °F 29.85 in Calm     47 % 0.00 in
20:24 87.6 °F 64.3 °F 29.85 in Calm     46 % 0.00 in
20:29 87.5 °F 64.8 °F 29.86 in Calm     47 % 0.00 in
20:34 87.4 °F 62.8 °F 29.86 in Calm     44 % 0.00 in
20:39 87.3 °F 64.0 °F 29.86 in Calm     46 % 0.00 in
20:44 87.0 °F 63.7 °F 29.87 in Calm     46 % 0.00 in
20:49 87.3 °F 64.6 °F 29.87 in Calm     47 % 0.00 in
20:54 87.7 °F 63.7 °F 29.87 in NNW 1.0 mph 1.0 mph 45 % 0.00 in
20:59 88.4 °F 64.4 °F 29.87 in NW 1.2 mph   45 % 0.00 in
21:04 88.2 °F 64.2 °F 29.87 in Calm     45 % 0.00 in
21:09 88.0 °F 64.0 °F 29.87 in Calm     45 % 0.00 in
21:14 87.5 °F 65.4 °F 29.88 in Calm     48 % 0.00 in
21:19 86.5 °F 64.5 °F 29.88 in Calm     48 % 0.00 in
21:24 85.7 °F 66.0 °F 29.88 in Calm     52 % 0.00 in
21:29 84.8 °F 66.3 °F 29.88 in Calm     54 % 0.00 in
21:30 84.8 °F 66.3 °F 29.88 in Calm     54 % 0.00 in
21:35 84.2 °F 65.8 °F 29.88 in Calm     54 % 0.00 in
21:40 83.6 °F 66.8 °F 29.88 in Calm     57 % 0.00 in
21:45 82.9 °F 65.6 °F 29.88 in Calm     56 % 0.00 in
21:50 82.4 °F 67.6 °F 29.88 in Calm     61 % 0.00 in
21:55 81.8 °F 66.1 °F 29.88 in Calm     59 % 0.00 in
22:00 81.5 °F 67.2 °F 29.88 in Calm     62 % 0.00 in
22:05 81.2 °F 66.5 °F 29.88 in Calm     61 % 0.00 in
22:10 80.7 °F 65.5 °F 29.88 in Calm     60 % 0.00 in
22:15 80.2 °F 66.0 °F 29.88 in Calm     62 % 0.00 in
22:20 79.7 °F 66.0 °F 29.88 in Calm     63 % 0.00 in
22:25 79.2 °F 66.4 °F 29.88 in Calm     65 % 0.00 in
22:30 79.5 °F 66.3 °F 29.88 in Calm     64 % 0.00 in
22:35 79.2 °F 65.5 °F 29.89 in Calm     63 % 0.00 in
22:40 79.1 °F 66.3 °F 29.88 in Calm     65 % 0.00 in
22:45 79.0 °F 66.7 °F 29.89 in Calm     66 % 0.00 in
22:50 78.6 °F 65.8 °F 29.89 in Calm     65 % 0.00 in
22:55 78.3 °F 65.6 °F 29.89 in Calm     65 % 0.00 in
23:00 78.1 °F 65.8 °F 29.89 in Calm     66 % 0.00 in
23:05 77.7 °F 65.9 °F 29.89 in Calm     67 % 0.00 in
23:10 77.5 °F 65.7 °F 29.89 in Calm     67 % 0.00 in
23:15 77.5 °F 65.7 °F 29.89 in SE 1.2 mph 1.2 mph 67 % 0.00 in
23:20 77.7 °F 65.0 °F 29.89 in SE 2.3 mph 2.3 mph 65 % 0.00 in
23:25 78.2 °F 65.0 °F 29.89 in East 1.2 mph 1.2 mph 64 % 0.00 in
23:30 78.3 °F 65.1 °F 29.90 in Calm     64 % 0.00 in
23:35 78.2 °F 65.0 °F 29.90 in Calm     64 % 0.00 in
23:40 77.7 °F 64.5 °F 29.90 in Calm     64 % 0.00 in
23:45 77.2 °F 65.4 °F 29.90 in Calm     67 % 0.00 in
23:51 76.8 °F 65.4 °F 29.89 in Calm     68 % 0.00 in
23:56 76.5 °F 65.1 °F 29.90 in Calm     68 % 0.00 in
Park Place, Exeter, Tulare County, California, USA
Compliments of Weather Underground - 2.75 mb